Time;durP1;ratioP1;P1;durP2;ratioP2;P2;SDS_P1;SDS_P2;PMS_P1;PMS_P2;Temp;Humidity;BMP_temperature;BMP_pressure;BME280_temperature;BME280_humidity;BME280_pressure;Samples;Min_cycle;Max_cycle;Signal;HPM_P1;HPM_P2
2022/12/28 00:01:26;;;;;;;22.42;13.35;;;2.00;99.90;;;;;;5011791;28;20028;-76
2022/12/28 00:03:53;;;;;;;29.55;14.80;;;2.00;99.90;;;;;;5018508;28;20482;-76
2022/12/28 00:06:21;;;;;;;26.05;14.93;;;1.90;99.90;;;;;;5021939;28;20453;-75
2022/12/28 00:08:47;;;;;;;24.17;14.30;;;1.90;99.90;;;;;;5014763;28;20086;-74
2022/12/28 00:11:18;;;;;;;27.60;15.00;;;1.90;99.90;;;;;;5011769;28;20108;-75
2022/12/28 00:13:44;;;;;;;25.08;13.77;;;1.90;99.90;;;;;;5015105;28;20037;-76
2022/12/28 00:16:19;;;;;;;21.38;12.52;;;1.80;99.90;;;;;;5012925;28;20041;-75
2022/12/28 00:18:45;;;;;;;18.40;10.38;;;1.90;99.90;;;;;;5012830;28;20037;-75
2022/12/28 00:21:10;;;;;;;15.68;8.50;;;1.80;99.90;;;;;;5014508;28;20022;-76
2022/12/28 00:23:36;;;;;;;16.20;8.70;;;1.80;99.90;;;;;;5013406;28;20022;-76
2022/12/28 00:26:06;;;;;;;12.27;7.18;;;1.80;99.90;;;;;;5006705;28;20029;-75
2022/12/28 00:28:32;;;;;;;13.00;7.40;;;1.80;99.90;;;;;;5011933;28;20100;-75
2022/12/28 00:30:58;;;;;;;10.98;6.43;;;1.80;99.90;;;;;;5011934;28;20479;-76
2022/12/28 00:33:24;;;;;;;11.77;6.38;;;1.80;99.90;;;;;;5014261;28;20034;-75
2022/12/28 00:35:54;;;;;;;14.20;7.88;;;1.80;99.90;;;;;;5012066;28;20077;-76
2022/12/28 00:38:20;;;;;;;11.65;6.60;;;1.70;99.90;;;;;;5014877;28;20036;-76
2022/12/28 00:40:45;;;;;;;13.93;8.52;;;1.80;99.90;;;;;;5013798;28;20430;-76
2022/12/28 00:43:11;;;;;;;19.45;9.63;;;1.80;99.90;;;;;;5013345;28;20033;-76
2022/12/28 00:45:37;;;;;;;16.60;9.05;;;1.80;99.90;;;;;;5014561;28;20022;-75
2022/12/28 00:48:03;;;;;;;15.68;8.85;;;1.80;99.90;;;;;;5007608;28;20389;-76
2022/12/28 00:50:28;;;;;;;14.18;8.25;;;1.80;99.90;;;;;;5009078;28;20033;-75
2022/12/28 00:52:54;;;;;;;18.42;8.63;;;1.80;99.90;;;;;;5011694;28;20029;-76
2022/12/28 00:55:19;;;;;;;12.10;6.97;;;1.80;99.90;;;;;;5015520;28;20078;-76
2022/12/28 00:57:45;;;;;;;13.15;6.60;;;1.80;99.90;;;;;;5015124;28;20026;-76
2022/12/28 01:00:11;;;;;;;12.05;6.55;;;1.90;99.90;;;;;;5012920;28;20024;-75
2022/12/28 01:02:37;;;;;;;10.95;5.60;;;1.90;99.90;;;;;;5008543;28;20032;-76
2022/12/28 01:05:04;;;;;;;14.55;7.35;;;1.90;99.90;;;;;;5015506;28;20486;-75
2022/12/28 01:07:29;;;;;;;14.18;7.45;;;1.90;99.90;;;;;;5027253;28;20512;-76
2022/12/28 01:09:55;;;;;;;15.25;8.15;;;1.90;99.90;;;;;;5019003;28;20112;-74
2022/12/28 01:12:20;;;;;;;17.05;7.55;;;1.90;99.90;;;;;;5023628;28;20068;-75
2022/12/28 01:14:46;;;;;;;14.05;7.63;;;1.90;99.90;;;;;;5023531;28;20390;-76
2022/12/28 01:17:11;;;;;;;12.70;7.18;;;1.90;99.90;;;;;;5023054;28;20033;-75
2022/12/28 01:19:37;;;;;;;15.15;7.28;;;1.90;99.90;;;;;;5014765;28;20030;-75
2022/12/28 01:22:03;;;;;;;14.23;7.57;;;1.90;99.90;;;;;;5018382;28;20314;-76
2022/12/28 01:24:28;;;;;;;14.90;7.20;;;1.80;99.90;;;;;;5021305;28;20405;-75
2022/12/28 01:26:54;;;;;;;14.57;6.30;;;1.80;99.90;;;;;;5015405;28;20026;-76
2022/12/28 01:29:19;;;;;;;13.55;5.80;;;1.80;99.90;;;;;;5023676;28;20057;-76
2022/12/28 01:31:45;;;;;;;9.88;5.35;;;1.80;99.90;;;;;;5016484;28;20213;-75
2022/12/28 01:34:11;;;;;;;9.35;5.50;;;1.80;99.90;;;;;;5018129;28;20104;-74
2022/12/28 01:36:36;;;;;;;9.73;5.32;;;1.80;99.90;;;;;;5019499;28;20040;-74
2022/12/28 01:39:04;;;;;;;9.15;5.20;;;1.80;99.90;;;;;;5011195;28;20026;-75
2022/12/28 01:41:30;;;;;;;9.63;4.70;;;1.80;99.90;;;;;;5012695;28;20030;-74
2022/12/28 01:43:56;;;;;;;11.02;4.55;;;1.80;99.90;;;;;;5012582;28;20056;-74
2022/12/28 01:46:30;;;;;;;11.18;4.95;;;1.80;99.90;;;;;;5007791;28;20112;-74
2022/12/28 01:49:06;;;;;;;9.40;5.18;;;1.80;99.90;;;;;;5010116;28;20619;-75
2022/12/28 01:51:52;;;;;;;9.63;4.15;;;1.90;99.90;;;;;;5011332;28;20129;-74
2022/12/28 01:54:21;;;;;;;9.30;4.38;;;1.90;99.90;;;;;;5017138;28;20116;-75
2022/12/28 01:56:48;;;;;;;9.15;4.28;;;1.90;99.90;;;;;;5015249;28;20056;-75
2022/12/28 01:59:16;;;;;;;8.90;4.63;;;2.00;99.90;;;;;;5014679;28;20041;-75
2022/12/28 02:01:42;;;;;;;7.55;4.75;;;2.00;99.90;;;;;;5015408;28;20053;-74
2022/12/28 02:04:07;;;;;;;11.25;5.35;;;2.00;99.90;;;;;;5017376;28;20084;-74
2022/12/28 02:06:33;;;;;;;13.10;6.60;;;2.00;99.90;;;;;;5008477;28;20024;-75
2022/12/28 02:09:22;;;;;;;9.07;5.20;;;2.00;99.90;;;;;;5016525;28;20545;-74
2022/12/28 02:11:48;;;;;;;13.85;6.13;;;2.10;99.90;;;;;;5013547;28;20037;-75
2022/12/28 02:14:15;;;;;;;11.98;6.25;;;2.10;99.90;;;;;;5015319;28;20036;-75
2022/12/28 02:16:42;;;;;;;11.05;6.40;;;2.10;99.90;;;;;;5011658;28;20030;-75
2022/12/28 02:19:10;;;;;;;10.48;5.55;;;2.20;99.90;;;;;;5015923;28;20022;-75
2022/12/28 02:21:45;;;;;;;9.70;5.70;;;2.20;99.90;;;;;;5016690;28;20018;-75
2022/12/28 02:24:23;;;;;;;9.95;4.30;;;2.20;99.90;;;;;;5028363;28;20034;-75
2022/12/28 02:27:10;;;;;;;5.75;2.88;;;2.30;99.90;;;;;;5016928;28;20026;-78
2022/12/28 02:29:59;;;;;;;9.80;2.90;;;2.40;99.90;;;;;;5009877;28;20041;-75
2022/12/28 02:32:45;;;;;;;5.85;3.08;;;2.50;99.90;;;;;;5004438;28;20026;-75
2022/12/28 02:35:47;;;;;;;6.05;2.60;;;2.50;99.90;;;;;;5016236;28;20037;-76
2022/12/28 02:38:35;;;;;;;5.47;2.97;;;2.70;99.90;;;;;;5016660;28;20042;-76
2022/12/28 02:41:12;;;;;;;2.92;1.90;;;2.80;99.90;;;;;;5013006;28;20021;-75
2022/12/28 02:43:38;;;;;;;5.28;1.92;;;2.90;99.90;;;;;;5015928;28;20040;-76
2022/12/28 02:50:04;;;;;;;3.40;1.80;;;3.00;99.90;;;;;;5011732;28;20045;-76
2022/12/28 02:52:10;;;;;;;6.72;1.50;;;3.10;99.90;;;;;;5012097;28;20057;-75
2022/12/28 02:58:51;;;;;;;3.70;1.42;;;3.30;99.90;;;;;;5013725;28;20037;-76
2022/12/28 03:01:35;;;;;;;5.10;3.30;;;3.40;99.90;;;;;;4991095;28;20046;-76
2022/12/28 03:04:06;;;;;;;5.63;2.53;;;3.40;99.90;;;;;;5009917;28;20022;-75
2022/12/28 03:09:58;;;;;;;11.68;4.82;;;3.50;99.90;;;;;;5013314;28;20092;-76
2022/12/28 03:12:41;;;;;;;8.90;3.53;;;3.40;99.90;;;;;;5014247;28;20097;-76
2022/12/28 03:15:11;;;;;;;8.18;2.58;;;3.40;99.90;;;;;;5021423;28;20026;-76
2022/12/28 03:31:35;;;;;;;3.22;1.20;;;3.80;99.90;;;;;;5007203;28;20040;-75
2022/12/28 03:34:07;;;;;;;2.90;1.17;;;3.90;99.90;;;;;;5017836;28;20455;-75
2022/12/28 03:36:44;;;;;;;5.55;1.67;;;3.90;99.90;;;;;;5010266;28;20112;-76
2022/12/28 03:39:19;;;;;;;4.85;2.22;;;3.90;99.90;;;;;;5007293;28;20100;-76
2022/12/28 03:44:51;;;;;;;2.83;1.77;;;4.00;99.90;;;;;;5010904;28;20032;-76
2022/12/28 03:47:20;;;;;;;5.38;1.38;;;4.00;99.90;;;;;;5011150;28;20026;-75
2022/12/28 03:49:46;;;;;;;3.88;1.33;;;4.00;99.90;;;;;;5012876;28;20124;-76
2022/12/28 03:52:12;;;;;;;3.22;1.33;;;4.10;99.90;;;;;;5005798;28;20109;-75
2022/12/28 03:54:39;;;;;;;2.47;1.42;;;4.10;99.90;;;;;;5011151;28;20087;-75
2022/12/28 03:57:05;;;;;;;3.15;1.75;;;4.10;99.90;;;;;;5013360;28;20037;-75
2022/12/28 03:59:30;;;;;;;3.20;1.55;;;4.10;99.90;;;;;;5015314;28;20109;-75
2022/12/28 04:01:56;;;;;;;4.80;1.88;;;4.10;99.90;;;;;;5020397;28;20030;-75
2022/12/28 04:04:22;;;;;;;5.15;1.30;;;4.10;99.90;;;;;;5016350;28;20030;-75
2022/12/28 04:06:47;;;;;;;3.25;1.50;;;4.10;99.90;;;;;;5010547;28;20026;-75
2022/12/28 04:09:13;;;;;;;9.30;1.80;;;4.10;99.90;;;;;;5013452;28;20029;-75
2022/12/28 04:11:39;;;;;;;3.83;1.23;;;4.00;99.90;;;;;;5014625;28;20465;-75
2022/12/28 04:14:05;;;;;;;4.20;1.35;;;4.10;99.90;;;;;;5007579;28;20037;-76
2022/12/28 04:16:31;;;;;;;9.18;3.88;;;4.10;99.90;;;;;;5017033;28;20486;-75
2022/12/28 04:18:56;;;;;;;7.50;4.50;;;4.10;99.90;;;;;;5016586;28;20038;-74
2022/12/28 04:21:22;;;;;;;6.85;4.15;;;4.00;99.90;;;;;;5014772;28;20039;-76
2022/12/28 04:23:48;;;;;;;8.15;4.53;;;4.00;99.90;;;;;;5017349;28;20022;-76
2022/12/28 04:26:15;;;;;;;5.80;2.78;;;4.00;99.90;;;;;;5018460;28;20375;-76
2022/12/28 04:28:42;;;;;;;5.85;3.20;;;4.00;99.90;;;;;;5011284;28;20057;-75
2022/12/28 04:31:11;;;;;;;5.85;3.35;;;3.90;99.90;;;;;;5012956;28;20034;-75
2022/12/28 04:33:38;;;;;;;6.68;3.65;;;4.00;99.90;;;;;;5011075;28;20025;-76
2022/12/28 04:36:10;;;;;;;5.75;3.70;;;3.90;99.90;;;;;;5016588;28;20033;-75
2022/12/28 04:38:35;;;;;;;3.92;2.00;;;3.90;99.90;;;;;;5016715;28;20037;-75
2022/12/28 04:41:02;;;;;;;7.80;2.70;;;4.00;99.90;;;;;;5016769;28;20086;-75
2022/12/28 04:43:29;;;;;;;4.20;1.40;;;4.00;99.90;;;;;;5019297;28;20406;-75
2022/12/28 04:46:04;;;;;;;1.25;0.70;;;4.10;99.90;;;;;;5014202;28;20021;-75
2022/12/28 04:48:31;;;;;;;2.75;0.88;;;4.20;99.90;;;;;;5012855;28;20386;-76
2022/12/28 04:50:57;;;;;;;2.30;0.90;;;4.20;99.90;;;;;;5019456;28;20498;-74
2022/12/28 04:53:23;;;;;;;5.15;0.90;;;4.30;99.90;;;;;;5020334;28;20045;-74
2022/12/28 04:55:49;;;;;;;1.92;1.10;;;4.40;99.90;;;;;;5018230;28;20394;-76
2022/12/28 04:58:15;;;;;;;1.55;0.98;;;4.40;99.90;;;;;;5015233;28;20029;-73
2022/12/28 05:00:41;;;;;;;2.40;1.10;;;4.50;99.90;;;;;;5016995;28;20490;-74
2022/12/28 05:03:07;;;;;;;3.60;1.17;;;4.50;99.90;;;;;;5014661;28;20057;-75
2022/12/28 05:05:33;;;;;;;2.05;1.23;;;4.60;99.90;;;;;;5013993;28;20092;-74
2022/12/28 05:08:01;;;;;;;3.92;1.40;;;4.60;99.90;;;;;;5014827;28;20030;-77
2022/12/28 05:10:28;;;;;;;3.40;1.17;;;4.60;99.90;;;;;;5015575;28;20026;-74
2022/12/28 05:12:55;;;;;;;3.95;1.63;;;4.70;99.90;;;;;;5014927;28;20026;-74
2022/12/28 05:15:21;;;;;;;5.18;1.83;;;4.60;99.90;;;;;;5010971;28;20037;-73
2022/12/28 05:17:46;;;;;;;5.53;1.63;;;4.70;99.90;;;;;;5014915;28;20549;-74
2022/12/28 05:20:12;;;;;;;4.07;1.88;;;4.70;99.90;;;;;;5010538;28;20034;-74
2022/12/28 05:22:38;;;;;;;5.18;2.60;;;4.70;99.90;;;;;;5015979;28;20445;-74
2022/12/28 05:25:04;;;;;;;4.75;1.88;;;4.70;99.90;;;;;;5013853;28;20018;-74
2022/12/28 05:27:29;;;;;;;7.03;2.40;;;4.80;99.90;;;;;;5014284;28;20509;-75
2022/12/28 05:29:55;;;;;;;5.40;2.28;;;4.70;99.90;;;;;;5013374;28;20017;-74
2022/12/28 05:32:21;;;;;;;2.90;1.60;;;4.80;99.90;;;;;;5017098;28;20029;-73
2022/12/28 05:34:46;;;;;;;4.90;2.17;;;4.80;99.90;;;;;;5007000;28;20483;-74
2022/12/28 05:37:12;;;;;;;5.78;2.17;;;4.70;99.90;;;;;;5010675;28;20061;-74
2022/12/28 05:39:37;;;;;;;4.93;2.70;;;4.80;99.90;;;;;;5007912;28;20057;-73
2022/12/28 05:42:03;;;;;;;3.95;2.33;;;4.80;99.90;;;;;;5013753;28;20101;-73
2022/12/28 05:44:29;;;;;;;6.60;2.35;;;4.70;99.90;;;;;;5011602;28;20026;-73
2022/12/28 05:46:55;;;;;;;5.20;2.97;;;4.80;99.90;;;;;;5015578;28;20368;-73
2022/12/28 05:49:21;;;;;;;4.28;2.63;;;4.80;99.90;;;;;;5012350;28;20079;-74
2022/12/28 05:51:52;;;;;;;5.57;2.58;;;4.80;99.90;;;;;;5009837;28;20037;-75
2022/12/28 05:54:18;;;;;;;7.15;2.63;;;4.80;99.90;;;;;;5010130;28;20819;-75
2022/12/28 05:56:44;;;;;;;4.20;2.17;;;4.80;99.90;;;;;;5016689;28;20026;-75
2022/12/28 05:59:10;;;;;;;3.78;2.00;;;4.80;99.90;;;;;;5018420;28;20487;-75
2022/12/28 06:01:38;;;;;;;5.78;2.50;;;4.80;99.90;;;;;;5011411;28;20057;-75
2022/12/28 06:04:07;;;;;;;4.97;2.67;;;4.80;99.90;;;;;;5010301;28;20034;-74
2022/12/28 06:06:35;;;;;;;7.88;3.45;;;4.80;99.90;;;;;;5010414;28;20041;-74
2022/12/28 06:09:01;;;;;;;8.38;6.38;;;4.80;99.90;;;;;;5016114;28;20033;-74
2022/12/28 06:11:28;;;;;;;9.20;5.57;;;4.80;99.90;;;;;;5013507;28;20085;-74
2022/12/28 06:13:56;;;;;;;7.30;4.93;;;4.70;99.90;;;;;;5011545;28;20080;-75
2022/12/28 06:16:27;;;;;;;7.30;5.15;;;4.60;99.90;;;;;;5006088;28;20029;-74
2022/12/28 06:18:53;;;;;;;8.52;4.72;;;4.60;99.90;;;;;;5016571;28;20084;-74
2022/12/28 06:21:20;;;;;;;7.30;4.32;;;4.50;99.90;;;;;;5012589;28;20130;-73
2022/12/28 06:23:46;;;;;;;6.10;3.55;;;4.50;99.90;;;;;;5014566;28;20033;-74
2022/12/28 06:26:15;;;;;;;5.93;3.65;;;4.50;99.90;;;;;;5013490;28;20038;-74
2022/12/28 06:28:40;;;;;;;6.32;3.38;;;4.50;99.90;;;;;;5015054;28;20033;-74
2022/12/28 06:31:11;;;;;;;6.80;3.35;;;4.50;99.90;;;;;;5012053;28;20063;-75
2022/12/28 06:33:39;;;;;;;9.40;3.55;;;4.50;99.90;;;;;;5008711;28;20388;-74
2022/12/28 06:36:16;;;;;;;6.55;3.22;;;4.60;99.90;;;;;;5009411;28;20117;-72
2022/12/28 06:38:42;;;;;;;6.50;3.45;;;4.60;99.90;;;;;;5009774;28;20033;-73
2022/12/28 06:41:09;;;;;;;6.63;3.30;;;4.70;99.90;;;;;;5012671;28;20036;-73
2022/12/28 06:43:37;;;;;;;7.93;3.53;;;4.70;99.90;;;;;;5015211;28;20037;-73
2022/12/28 06:46:03;;;;;;;6.07;3.40;;;4.70;99.90;;;;;;5010006;28;20038;-73
2022/12/28 06:48:30;;;;;;;7.00;3.97;;;4.70;99.90;;;;;;5013673;28;20034;-73
2022/12/28 06:50:58;;;;;;;6.07;3.45;;;4.70;99.90;;;;;;5015795;28;20030;-73
2022/12/28 06:53:26;;;;;;;6.47;3.40;;;4.80;99.90;;;;;;5009003;28;20078;-73
2022/12/28 06:56:00;;;;;;;6.60;3.42;;;4.80;99.90;;;;;;5008668;28;20430;-74
2022/12/28 06:58:27;;;;;;;5.88;3.40;;;4.80;99.90;;;;;;5012815;28;20104;-74
2022/12/28 07:00:53;;;;;;;5.75;3.15;;;4.90;99.90;;;;;;5010378;28;20029;-73
2022/12/28 07:03:20;;;;;;;5.70;3.00;;;4.80;99.90;;;;;;5008820;28;21160;-74
2022/12/28 07:05:46;;;;;;;5.85;2.83;;;4.90;99.90;;;;;;5012912;28;20115;-74
2022/12/28 07:08:11;;;;;;;8.10;3.72;;;4.90;99.90;;;;;;5012383;28;20049;-74
2022/12/28 07:10:37;;;;;;;4.93;3.10;;;4.90;99.90;;;;;;5014446;28;20532;-74
2022/12/28 07:13:03;;;;;;;5.82;3.25;;;4.90;99.90;;;;;;5012777;28;20032;-74
2022/12/28 07:15:29;;;;;;;5.38;3.10;;;4.90;99.90;;;;;;5014805;28;20033;-74
2022/12/28 07:17:55;;;;;;;5.47;3.13;;;4.90;99.90;;;;;;5011493;28;20041;-73
2022/12/28 07:20:20;;;;;;;6.45;3.22;;;4.90;99.90;;;;;;5005767;28;20028;-74
2022/12/28 07:22:46;;;;;;;7.05;3.63;;;4.90;99.90;;;;;;5014668;28;20037;-73
2022/12/28 07:25:12;;;;;;;5.47;3.15;;;4.90;99.90;;;;;;5007337;28;20030;-74
2022/12/28 07:27:37;;;;;;;5.75;3.13;;;4.90;99.90;;;;;;5013346;28;20096;-72
2022/12/28 07:30:03;;;;;;;6.45;3.72;;;5.00;99.90;;;;;;5008845;28;20038;-71
2022/12/28 07:32:29;;;;;;;7.20;3.83;;;5.10;99.90;;;;;;5015040;28;20486;-71
2022/12/28 07:34:55;;;;;;;5.97;3.03;;;5.20;99.90;;;;;;5009598;28;20033;-71
2022/12/28 07:37:20;;;;;;;4.18;2.83;;;5.20;99.90;;;;;;5010498;28;20479;-71
2022/12/28 07:39:46;;;;;;;5.95;3.35;;;5.40;99.90;;;;;;5008585;28;20037;-71
2022/12/28 07:42:11;;;;;;;5.32;2.88;;;5.40;99.90;;;;;;5009924;28;20060;-71
2022/12/28 07:44:40;;;;;;;6.15;3.33;;;5.50;99.90;;;;;;5012747;28;20037;-76
2022/12/28 07:47:06;;;;;;;5.60;3.47;;;5.50;99.90;;;;;;5013060;28;20048;-76
2022/12/28 07:49:32;;;;;;;6.32;3.20;;;5.50;99.90;;;;;;5011432;28;20038;-76
2022/12/28 07:51:58;;;;;;;5.63;3.60;;;5.50;99.90;;;;;;5011266;28;20079;-77
2022/12/28 07:54:24;;;;;;;6.63;3.65;;;5.50;99.90;;;;;;5012881;28;20448;-76
2022/12/28 07:56:49;;;;;;;6.70;3.42;;;5.40;99.90;;;;;;5011138;28;20029;-74
2022/12/28 07:59:15;;;;;;;7.07;3.22;;;5.40;99.90;;;;;;5010924;28;20467;-74
2022/12/28 08:01:40;;;;;;;4.82;2.80;;;5.40;99.90;;;;;;5010937;28;20034;-75
2022/12/28 08:04:11;;;;;;;6.22;2.83;;;5.40;99.90;;;;;;5012195;28;20029;-75
2022/12/28 08:06:39;;;;;;;4.05;2.80;;;5.40;99.90;;;;;;5011321;28;20034;-75
2022/12/28 08:09:06;;;;;;;5.72;2.83;;;5.40;99.90;;;;;;5012997;28;20018;-76
2022/12/28 08:11:34;;;;;;;5.40;2.83;;;5.40;99.90;;;;;;5016799;28;20030;-76
2022/12/28 08:14:01;;;;;;;6.10;2.63;;;5.40;99.90;;;;;;5025375;28;20086;-76
2022/12/28 08:16:29;;;;;;;6.80;3.33;;;5.40;99.90;;;;;;5025961;28;20049;-75
2022/12/28 08:18:55;;;;;;;5.70;2.78;;;5.40;99.90;;;;;;5017099;28;20080;-75
2022/12/28 08:21:31;;;;;;;6.45;3.08;;;5.50;99.90;;;;;;5016116;28;20030;-75
2022/12/28 08:23:57;;;;;;;6.18;2.75;;;5.50;99.90;;;;;;5015888;28;20018;-75
2022/12/28 08:26:46;;;;;;;4.97;2.95;;;5.50;99.90;;;;;;4965504;28;20072;-76
2022/12/28 08:29:18;;;;;;;3.88;2.40;;;5.50;99.90;;;;;;4996161;28;20026;-75
2022/12/28 08:31:45;;;;;;;5.47;2.92;;;5.50;99.90;;;;;;4997516;28;20057;-74
2022/12/28 08:34:19;;;;;;;3.45;2.22;;;5.50;99.90;;;;;;4997323;28;20427;-75
2022/12/28 08:36:44;;;;;;;;;;;5.50;99.90;;;;;;4980254;28;20063;-76
2022/12/28 08:39:10;;;;;;;4.40;2.70;;;5.60;99.90;;;;;;5002581;28;19913;-76
2022/12/28 08:41:35;;;;;;;6.57;3.30;;;5.60;99.90;;;;;;5006267;28;20031;-75
2022/12/28 08:44:01;;;;;;;6.80;2.85;;;5.60;99.90;;;;;;5001509;28;20068;-75
2022/12/28 08:46:33;;;;;;;6.25;3.00;;;5.60;99.90;;;;;;4997159;28;20495;-74
2022/12/28 08:48:59;;;;;;;6.15;2.92;;;5.70;99.90;;;;;;4996325;28;20029;-77
2022/12/28 08:51:30;;;;;;;5.72;2.70;;;5.70;99.90;;;;;;5002386;28;20033;-76
2022/12/28 08:53:56;;;;;;;10.18;3.85;;;5.70;99.90;;;;;;4998092;28;20030;-76
2022/12/28 08:56:26;;;;;;;7.07;3.55;;;5.70;99.90;;;;;;4995090;28;20036;-75
2022/12/28 08:58:52;;;;;;;7.60;3.33;;;5.70;99.90;;;;;;4996934;28;20034;-76
2022/12/28 09:01:26;;;;;;;5.18;3.05;;;5.80;99.90;;;;;;4994742;28;20033;-77
2022/12/28 09:03:54;;;;;;;6.13;3.65;;;5.80;99.90;;;;;;4991999;28;20021;-74
2022/12/28 09:06:23;;;;;;;5.57;3.28;;;5.80;99.90;;;;;;4994545;28;20042;-73
2022/12/28 09:08:50;;;;;;;8.35;3.88;;;5.80;99.90;;;;;;4995931;28;20026;-77
2022/12/28 09:11:16;;;;;;;6.50;3.92;;;5.80;99.90;;;;;;4993764;28;20129;-74
2022/12/28 09:13:42;;;;;;;10.43;3.65;;;5.90;99.90;;;;;;4996283;28;20034;-73
2022/12/28 09:16:10;;;;;;;9.60;4.03;;;5.90;99.90;;;;;;4998534;28;20079;-75
2022/12/28 09:18:37;;;;;;;7.72;3.70;;;5.90;99.90;;;;;;4992644;28;20029;-74
2022/12/28 09:21:08;;;;;;;6.10;3.47;;;5.90;99.90;;;;;;4981794;28;20041;-75
2022/12/28 09:23:35;;;;;;;9.20;4.00;;;6.00;99.90;;;;;;4990855;28;20023;-76
2022/12/28 09:26:09;;;;;;;9.38;3.92;;;6.00;99.90;;;;;;5008213;28;20049;-73
2022/12/28 09:28:35;;;;;;;8.25;3.83;;;6.00;99.90;;;;;;5013954;28;20122;-75
2022/12/28 09:31:04;;;;;;;7.35;3.38;;;6.10;99.90;;;;;;5014894;28;20062;-75
2022/12/28 09:36:15;;;;;;;5.95;3.20;;;6.10;99.90;;;;;;5015006;28;20446;-76
2022/12/28 09:38:42;;;;;;;6.35;3.35;;;6.20;99.90;;;;;;5014868;28;20033;-75
2022/12/28 09:41:31;;;;;;;5.65;3.33;;;6.30;99.90;;;;;;5015122;28;20033;-74
2022/12/28 09:44:11;;;;;;;8.93;3.47;;;6.30;99.90;;;;;;5014295;28;20030;-75
2022/12/28 09:47:11;;;;;;;5.97;2.97;;;6.30;99.90;;;;;;4993339;28;20081;-74
2022/12/28 09:49:50;;;;;;;6.72;3.47;;;6.40;99.90;;;;;;4995935;28;20408;-75
2022/12/28 09:53:06;;;;;;;13.23;4.10;;;6.40;99.90;;;;;;4994708;28;20029;-75
2022/12/28 09:55:37;;;;;;;5.85;3.53;;;6.50;99.90;;;;;;4966630;28;20065;-74
2022/12/28 09:58:04;;;;;;;8.68;4.32;;;6.50;99.90;;;;;;4998579;28;20027;-75
2022/12/28 10:00:41;;;;;;;7.07;4.05;;;6.50;99.90;;;;;;4993758;28;20030;-75
2022/12/28 10:03:25;;;;;;;9.52;3.65;;;6.50;99.90;;;;;;4994604;28;20097;-75
2022/12/28 10:05:54;;;;;;;7.30;3.33;;;6.50;99.90;;;;;;4993221;28;20030;-75
2022/12/28 10:08:21;;;;;;;8.18;3.78;;;6.50;99.90;;;;;;4993287;28;20054;-76
2022/12/28 10:10:49;;;;;;;6.18;3.53;;;6.50;99.90;;;;;;4993457;28;20093;-76
2022/12/28 10:13:23;;;;;;;7.13;3.72;;;6.60;99.90;;;;;;4994882;28;20442;-75
2022/12/28 10:15:50;;;;;;;8.65;4.18;;;6.60;99.90;;;;;;4994505;28;20033;-75
2022/12/28 10:18:22;;;;;;;6.50;3.75;;;6.60;99.90;;;;;;4994505;28;20034;-75
2022/12/28 10:20:48;;;;;;;6.20;3.92;;;6.70;99.90;;;;;;4994937;28;20021;-75
2022/12/28 10:23:23;;;;;;;6.68;3.60;;;6.70;99.90;;;;;;4995199;28;20030;-75
2022/12/28 10:25:50;;;;;;;7.93;4.13;;;6.70;99.90;;;;;;4996842;28;20027;-77
2022/12/28 10:28:19;;;;;;;7.95;4.00;;;6.80;99.90;;;;;;4991426;28;20368;-76
2022/12/28 10:31:03;;;;;;;8.60;3.85;;;6.80;99.90;;;;;;4990436;28;20497;-77
2022/12/28 10:33:29;;;;;;;8.25;3.95;;;6.90;99.90;;;;;;4992036;28;20109;-77
2022/12/28 10:35:55;;;;;;;9.15;4.05;;;6.90;99.90;;;;;;4994659;28;20030;-77
2022/12/28 10:38:25;;;;;;;5.45;3.45;;;7.00;99.90;;;;;;4993081;28;20030;-76
2022/12/28 10:41:18;;;;;;;5.35;3.33;;;7.00;99.90;;;;;;4993730;28;20455;-76
2022/12/28 10:43:52;;;;;;;6.63;3.72;;;7.10;99.90;;;;;;4991541;28;20446;-75
2022/12/28 10:46:20;;;;;;;6.45;3.40;;;7.10;99.90;;;;;;5002658;28;20022;-76
2022/12/28 10:48:53;;;;;;;6.32;3.65;;;7.20;99.90;;;;;;4996378;28;20031;-75
2022/12/28 10:51:25;;;;;;;8.30;3.80;;;7.20;99.90;;;;;;4996104;28;20081;-76
2022/12/28 10:53:56;;;;;;;7.93;3.70;;;7.30;99.90;;;;;;4988911;28;20054;-76
2022/12/28 10:56:30;;;;;;;8.43;3.60;;;7.30;99.90;;;;;;4992733;28;20037;-74
2022/12/28 10:59:14;;;;;;;5.07;3.28;;;7.30;99.90;;;;;;4986779;28;20040;-75
2022/12/28 11:01:40;;;;;;;5.47;3.13;;;7.40;99.90;;;;;;4989707;28;20046;-76
2022/12/28 11:04:19;;;;;;;4.93;3.10;;;7.40;99.90;;;;;;4993826;28;20014;-74
2022/12/28 11:07:03;;;;;;;5.85;2.40;;;7.40;99.90;;;;;;4980983;28;20019;-76
2022/12/28 11:09:30;;;;;;;5.13;2.10;;;7.50;99.90;;;;;;5016987;28;20117;-75
2022/12/28 11:12:22;;;;;;;5.78;2.53;;;7.50;99.90;;;;;;4990113;28;20097;-76
2022/12/28 11:14:51;;;;;;;4.28;2.10;;;7.50;99.90;;;;;;4998107;28;20113;-75
2022/12/28 11:17:20;;;;;;;3.38;1.80;;;7.50;99.90;;;;;;4993114;28;20026;-75
2022/12/28 11:19:49;;;;;;;6.88;2.67;;;7.50;99.90;;;;;;4994349;28;20026;-75
2022/12/28 11:22:22;;;;;;;4.38;2.30;;;7.50;99.90;;;;;;4990661;28;20038;-75
2022/12/28 11:24:50;;;;;;;4.43;2.10;;;7.50;99.90;;;;;;4993023;28;20050;-75
2022/12/28 11:27:18;;;;;;;3.25;1.95;;;7.50;99.90;;;;;;4993941;28;20026;-74
2022/12/28 11:29:47;;;;;;;3.55;2.10;;;7.50;99.90;;;;;;4992659;28;20050;-74
2022/12/28 11:32:23;;;;;;;3.17;1.98;;;7.60;99.90;;;;;;4992986;28;20422;-75
2022/12/28 11:34:50;;;;;;;7.38;1.83;;;7.50;99.90;;;;;;4989636;28;20069;-75
2022/12/28 11:37:15;;;;;;;3.40;1.80;;;7.60;99.90;;;;;;4996058;28;20066;-74
2022/12/28 11:39:43;;;;;;;3.67;1.92;;;7.60;99.90;;;;;;4994863;28;20736;-75
2022/12/28 11:42:08;;;;;;;4.18;1.80;;;7.60;99.90;;;;;;4993846;28;20395;-75
2022/12/28 11:44:37;;;;;;;2.72;1.40;;;7.70;99.90;;;;;;4997377;28;20026;-76
2022/12/28 11:47:15;;;;;;;3.47;1.50;;;7.70;99.90;;;;;;4990501;28;20031;-75
2022/12/28 11:49:46;;;;;;;2.92;1.50;;;7.70;99.90;;;;;;4993429;28;20052;-75
2022/12/28 11:52:22;;;;;;;2.85;1.58;;;7.80;99.90;;;;;;4993330;28;20491;-76
2022/12/28 11:54:59;;;;;;;3.13;1.60;;;7.80;99.90;;;;;;4999701;28;20045;-75
2022/12/28 11:57:39;;;;;;;4.03;1.65;;;7.80;99.90;;;;;;5005182;28;20395;-76
2022/12/28 12:00:20;;;;;;;3.28;1.73;;;7.90;99.90;;;;;;4991987;28;20116;-76
2022/12/28 12:02:46;;;;;;;5.70;2.47;;;7.90;99.90;;;;;;5003983;28;20037;-76
2022/12/28 12:05:37;;;;;;;7.50;2.40;;;8.00;99.90;;;;;;4992476;28;20090;-76
2022/12/28 12:08:14;;;;;;;5.32;2.45;;;8.00;99.90;;;;;;4994021;28;20041;-78
2022/12/28 12:10:44;;;;;;;4.80;2.33;;;8.00;99.90;;;;;;5008835;28;20176;-77
2022/12/28 12:13:25;;;;;;;4.03;1.80;;;8.00;99.90;;;;;;5006640;28;20037;-76
2022/12/28 12:16:17;;;;;;;5.70;2.42;;;8.00;99.90;;;;;;4993121;28;20038;-76
2022/12/28 12:18:47;;;;;;;6.32;2.40;;;7.90;99.90;;;;;;4985192;28;20318;-77
2022/12/28 12:21:42;;;;;;;3.92;2.22;;;8.00;99.90;;;;;;4995485;28;20046;-77
2022/12/28 12:24:13;;;;;;;;;;;8.00;99.90;;;;;;4984879;28;21001;-77
2022/12/28 12:26:47;;;;;;;5.50;2.50;;;8.00;99.90;;;;;;4994409;28;19906;-77
2022/12/28 12:29:25;;;;;;;3.85;2.42;;;8.00;99.90;;;;;;4991480;28;20037;-76
2022/12/28 12:32:27;;;;;;;5.22;2.05;;;8.00;99.90;;;;;;4992825;28;20049;-76
2022/12/28 12:35:02;;;;;;;2.85;1.67;;;8.00;99.90;;;;;;4969883;28;20043;-74
2022/12/28 12:37:50;;;;;;;4.85;2.25;;;8.00;99.90;;;;;;5006599;28;20050;-73
2022/12/28 12:40:37;;;;;;;4.32;1.70;;;8.10;99.90;;;;;;4992721;28;20018;-76
2022/12/28 12:43:29;;;;;;;4.30;1.77;;;8.10;99.90;;;;;;4991807;28;20070;-77
2022/12/28 12:46:04;;;;;;;6.80;2.45;;;8.20;99.90;;;;;;4983367;28;20379;-76
2022/12/28 12:48:45;;;;;;;5.32;1.73;;;8.20;99.90;;;;;;4971992;28;20034;-77
2022/12/28 12:51:52;;;;;;;4.38;1.92;;;8.30;99.90;;;;;;4987725;28;20496;-75
2022/12/28 12:54:49;;;;;;;4.28;2.30;;;8.30;99.90;;;;;;4978141;28;20034;-75
2022/12/28 12:57:43;;;;;;;3.17;1.52;;;8.40;99.90;;;;;;5008614;28;20451;-73
2022/12/28 13:00:12;;;;;;;;;;;8.50;99.90;;;;;;4978396;28;20055;-75
2022/12/28 13:02:58;;;;;;;6.18;2.00;;;8.60;99.90;;;;;;5008448;28;19916;-76
2022/12/28 13:05:25;;;;;;;3.17;2.00;;;8.60;99.90;;;;;;4997903;28;20085;-75
2022/12/28 13:07:55;;;;;;;3.08;1.83;;;8.70;99.90;;;;;;4995059;28;20525;-75
2022/12/28 13:10:39;;;;;;;2.53;1.63;;;8.70;99.90;;;;;;4994919;28;20022;-75
2022/12/28 13:13:05;;;;;;;4.38;2.00;;;8.80;99.90;;;;;;4978343;28;20431;-75
2022/12/28 13:15:30;;;;;;;3.33;1.65;;;8.80;99.90;;;;;;4994716;28;20031;-75
2022/12/28 13:18:04;;;;;;;4.55;2.10;;;8.70;99.90;;;;;;4995679;28;20483;-75
2022/12/28 13:20:30;;;;;;;4.53;2.05;;;8.80;99.90;;;;;;4995921;28;20042;-75
2022/12/28 13:22:56;;;;;;;3.22;1.80;;;8.80;99.90;;;;;;4994544;28;20026;-74
2022/12/28 13:25:25;;;;;;;4.38;1.60;;;8.80;99.90;;;;;;4995695;28;20415;-73
2022/12/28 13:27:50;;;;;;;8.00;2.10;;;8.80;99.90;;;;;;4995836;28;20018;-74
2022/12/28 13:30:18;;;;;;;5.68;1.90;;;8.90;99.90;;;;;;4994376;28;20042;-74
2022/12/28 13:32:55;;;;;;;4.97;1.60;;;8.90;99.90;;;;;;4995250;28;20483;-73
2022/12/28 13:35:31;;;;;;;3.45;1.70;;;8.90;99.90;;;;;;4995515;28;20026;-73
2022/12/28 13:38:13;;;;;;;2.88;1.13;;;8.90;99.90;;;;;;4985335;28;20072;-73
2022/12/28 13:40:40;;;;;;;3.75;1.10;;;9.00;99.90;;;;;;4987804;28;20026;-73
2022/12/28 13:43:24;;;;;;;2.30;1.50;;;8.90;99.90;;;;;;4992409;28;20022;-73